sensor_id;sensor_type;location;lat;lon;timestamp;temperature;humidity
15609;DHT22;64278;45.642;13.756;2023-02-12T00:01:21;20.30;46.60
15609;DHT22;64278;45.642;13.756;2023-02-12T00:03:48;20.20;46.50
15609;DHT22;64278;45.642;13.756;2023-02-12T00:06:13;20.30;46.60
15609;DHT22;64278;45.642;13.756;2023-02-12T00:08:39;20.20;46.50
15609;DHT22;64278;45.642;13.756;2023-02-12T00:11:14;20.20;46.50
15609;DHT22;64278;45.642;13.756;2023-02-12T00:13:40;20.20;46.50
15609;DHT22;64278;45.642;13.756;2023-02-12T00:16:08;20.20;46.50
15609;DHT22;64278;45.642;13.756;2023-02-12T00:18:34;20.20;46.50
15609;DHT22;64278;45.642;13.756;2023-02-12T00:21:00;20.20;46.40
15609;DHT22;64278;45.642;13.756;2023-02-12T00:23:26;20.20;46.50
15609;DHT22;64278;45.642;13.756;2023-02-12T00:25:52;20.20;46.50
15609;DHT22;64278;45.642;13.756;2023-02-12T00:28:17;20.10;46.40
15609;DHT22;64278;45.642;13.756;2023-02-12T00:30:43;20.10;46.50
15609;DHT22;64278;45.642;13.756;2023-02-12T00:33:08;20.10;46.50
15609;DHT22;64278;45.642;13.756;2023-02-12T00:35:34;20.10;46.50
15609;DHT22;64278;45.642;13.756;2023-02-12T00:38:00;20.10;46.50
15609;DHT22;64278;45.642;13.756;2023-02-12T00:40:26;20.10;46.50
15609;DHT22;64278;45.642;13.756;2023-02-12T00:42:51;20.10;46.50
15609;DHT22;64278;45.642;13.756;2023-02-12T00:45:17;20.10;46.50
15609;DHT22;64278;45.642;13.756;2023-02-12T00:47:43;20.10;46.50
15609;DHT22;64278;45.642;13.756;2023-02-12T00:50:09;20.10;46.50
15609;DHT22;64278;45.642;13.756;2023-02-12T00:52:35;20.10;46.50
15609;DHT22;64278;45.642;13.756;2023-02-12T00:55:00;20.10;46.50
15609;DHT22;64278;45.642;13.756;2023-02-12T00:57:26;20.10;46.60
15609;DHT22;64278;45.642;13.756;2023-02-12T00:59:52;20.10;46.60
15609;DHT22;64278;45.642;13.756;2023-02-12T01:02:17;20.00;46.60
15609;DHT22;64278;45.642;13.756;2023-02-12T01:04:43;20.10;46.60
15609;DHT22;64278;45.642;13.756;2023-02-12T01:07:09;20.00;46.60
15609;DHT22;64278;45.642;13.756;2023-02-12T01:09:35;20.00;46.70
15609;DHT22;64278;45.642;13.756;2023-02-12T01:12:01;20.00;46.70
15609;DHT22;64278;45.642;13.756;2023-02-12T01:14:27;20.00;46.80
15609;DHT22;64278;45.642;13.756;2023-02-12T01:16:53;20.00;46.80
15609;DHT22;64278;45.642;13.756;2023-02-12T01:19:18;20.00;46.70
15609;DHT22;64278;45.642;13.756;2023-02-12T01:21:44;20.00;46.80
15609;DHT22;64278;45.642;13.756;2023-02-12T01:24:10;20.00;46.80
15609;DHT22;64278;45.642;13.756;2023-02-12T01:26:36;20.00;46.80
15609;DHT22;64278;45.642;13.756;2023-02-12T01:29:04;20.00;46.80
15609;DHT22;64278;45.642;13.756;2023-02-12T01:31:32;20.00;46.80
15609;DHT22;64278;45.642;13.756;2023-02-12T01:33:59;19.90;46.80
15609;DHT22;64278;45.642;13.756;2023-02-12T01:36:26;19.90;46.80
15609;DHT22;64278;45.642;13.756;2023-02-12T01:38:52;19.90;46.80
15609;DHT22;64278;45.642;13.756;2023-02-12T01:41:28;19.90;46.80
15609;DHT22;64278;45.642;13.756;2023-02-12T01:46:33;19.90;46.70
15609;DHT22;64278;45.642;13.756;2023-02-12T01:48:59;19.90;46.80
15609;DHT22;64278;45.642;13.756;2023-02-12T01:51:26;19.90;46.80
15609;DHT22;64278;45.642;13.756;2023-02-12T01:53:54;19.90;46.80
15609;DHT22;64278;45.642;13.756;2023-02-12T01:56:22;19.90;46.80
15609;DHT22;64278;45.642;13.756;2023-02-12T01:58:51;19.90;46.80
15609;DHT22;64278;45.642;13.756;2023-02-12T02:01:20;19.90;46.80
15609;DHT22;64278;45.642;13.756;2023-02-12T02:03:49;19.90;46.80
15609;DHT22;64278;45.642;13.756;2023-02-12T02:06:24;19.80;46.80
15609;DHT22;64278;45.642;13.756;2023-02-12T02:08:52;19.80;46.80
15609;DHT22;64278;45.642;13.756;2023-02-12T02:11:18;19.80;46.80
15609;DHT22;64278;45.642;13.756;2023-02-12T02:14:04;19.80;46.80
15609;DHT22;64278;45.642;13.756;2023-02-12T02:30:31;19.80;46.80
15609;DHT22;64278;45.642;13.756;2023-02-12T02:38:20;19.70;46.70
15609;DHT22;64278;45.642;13.756;2023-02-12T02:43:48;19.70;46.70
15609;DHT22;64278;45.642;13.756;2023-02-12T02:48:57;19.70;46.80
15609;DHT22;64278;45.642;13.756;2023-02-12T02:51:28;19.80;46.80
15609;DHT22;64278;45.642;13.756;2023-02-12T02:54:17;19.70;46.80
15609;DHT22;64278;45.642;13.756;2023-02-12T02:56:45;19.80;46.80
15609;DHT22;64278;45.642;13.756;2023-02-12T02:59:26;19.70;46.80
15609;DHT22;64278;45.642;13.756;2023-02-12T03:02:05;19.80;46.90
15609;DHT22;64278;45.642;13.756;2023-02-12T03:04:38;19.70;46.80
15609;DHT22;64278;45.642;13.756;2023-02-12T03:07:22;19.70;46.90
15609;DHT22;64278;45.642;13.756;2023-02-12T03:09:56;19.70;46.80
15609;DHT22;64278;45.642;13.756;2023-02-12T03:12:30;19.70;46.80
15609;DHT22;64278;45.642;13.756;2023-02-12T03:15:06;19.70;46.90
15609;DHT22;64278;45.642;13.756;2023-02-12T03:17:38;19.70;46.90
15609;DHT22;64278;45.642;13.756;2023-02-12T03:22:36;19.70;46.90
15609;DHT22;64278;45.642;13.756;2023-02-12T03:25:14;19.60;46.90
15609;DHT22;64278;45.642;13.756;2023-02-12T03:27:48;19.60;46.90
15609;DHT22;64278;45.642;13.756;2023-02-12T03:30:17;19.60;46.90
15609;DHT22;64278;45.642;13.756;2023-02-12T03:32:59;19.60;46.80
15609;DHT22;64278;45.642;13.756;2023-02-12T03:36:05;19.60;46.80
15609;DHT22;64278;45.642;13.756;2023-02-12T03:39:03;19.60;46.90
15609;DHT22;64278;45.642;13.756;2023-02-12T03:41:58;19.60;46.80
15609;DHT22;64278;45.642;13.756;2023-02-12T03:47:03;19.60;46.90
15609;DHT22;64278;45.642;13.756;2023-02-12T03:49:37;19.60;46.90
15609;DHT22;64278;45.642;13.756;2023-02-12T03:52:04;19.60;46.90
15609;DHT22;64278;45.642;13.756;2023-02-12T03:54:30;19.60;46.90
15609;DHT22;64278;45.642;13.756;2023-02-12T03:57:09;19.50;46.90
15609;DHT22;64278;45.642;13.756;2023-02-12T03:59:38;19.60;46.90
15609;DHT22;64278;45.642;13.756;2023-02-12T04:02:04;19.60;46.90
15609;DHT22;64278;45.642;13.756;2023-02-12T04:04:30;19.50;46.90
15609;DHT22;64278;45.642;13.756;2023-02-12T04:06:56;19.60;47.00
15609;DHT22;64278;45.642;13.756;2023-02-12T04:09:24;19.60;46.90
15609;DHT22;64278;45.642;13.756;2023-02-12T04:17:31;19.60;46.90
15609;DHT22;64278;45.642;13.756;2023-02-12T04:23:27;19.50;47.50
15609;DHT22;64278;45.642;13.756;2023-02-12T04:26:21;19.50;46.70
15609;DHT22;64278;45.642;13.756;2023-02-12T04:31:54;19.50;46.70
15609;DHT22;64278;45.642;13.756;2023-02-12T04:37:15;19.50;46.70
15609;DHT22;64278;45.642;13.756;2023-02-12T04:39:43;19.50;46.70
15609;DHT22;64278;45.642;13.756;2023-02-12T04:42:10;19.50;46.70
15609;DHT22;64278;45.642;13.756;2023-02-12T04:44:39;19.50;46.70
15609;DHT22;64278;45.642;13.756;2023-02-12T04:47:05;19.50;46.70
15609;DHT22;64278;45.642;13.756;2023-02-12T04:49:31;19.50;46.70
15609;DHT22;64278;45.642;13.756;2023-02-12T04:51:56;19.50;46.70
15609;DHT22;64278;45.642;13.756;2023-02-12T04:54:23;19.50;46.70
15609;DHT22;64278;45.642;13.756;2023-02-12T04:56:49;19.40;46.70
15609;DHT22;64278;45.642;13.756;2023-02-12T04:59:15;19.50;46.70
15609;DHT22;64278;45.642;13.756;2023-02-12T05:01:42;19.40;46.80
15609;DHT22;64278;45.642;13.756;2023-02-12T05:04:11;19.40;46.70
15609;DHT22;64278;45.642;13.756;2023-02-12T05:06:37;19.40;46.70
15609;DHT22;64278;45.642;13.756;2023-02-12T05:09:05;19.40;46.70
15609;DHT22;64278;45.642;13.756;2023-02-12T05:11:31;19.40;46.70
15609;DHT22;64278;45.642;13.756;2023-02-12T05:13:57;19.40;46.80
15609;DHT22;64278;45.642;13.756;2023-02-12T05:16:23;19.40;46.70
15609;DHT22;64278;45.642;13.756;2023-02-12T05:18:48;19.40;46.70
15609;DHT22;64278;45.642;13.756;2023-02-12T05:21:14;19.40;46.80
15609;DHT22;64278;45.642;13.756;2023-02-12T05:23:40;19.40;46.80
15609;DHT22;64278;45.642;13.756;2023-02-12T05:26:09;19.40;46.70
15609;DHT22;64278;45.642;13.756;2023-02-12T05:28:35;19.40;46.70
15609;DHT22;64278;45.642;13.756;2023-02-12T05:31:03;19.40;46.80
15609;DHT22;64278;45.642;13.756;2023-02-12T05:33:29;19.40;46.70
15609;DHT22;64278;45.642;13.756;2023-02-12T05:35:55;19.40;46.70
15609;DHT22;64278;45.642;13.756;2023-02-12T05:38:21;19.40;46.70
15609;DHT22;64278;45.642;13.756;2023-02-12T05:40:47;19.40;46.70
15609;DHT22;64278;45.642;13.756;2023-02-12T05:43:12;19.40;46.70
15609;DHT22;64278;45.642;13.756;2023-02-12T05:45:38;19.30;46.70
15609;DHT22;64278;45.642;13.756;2023-02-12T05:48:06;19.40;46.80
15609;DHT22;64278;45.642;13.756;2023-02-12T05:50:32;19.30;46.80
15609;DHT22;64278;45.642;13.756;2023-02-12T05:53:01;19.40;46.80
15609;DHT22;64278;45.642;13.756;2023-02-12T05:55:27;19.40;46.90
15609;DHT22;64278;45.642;13.756;2023-02-12T05:57:52;19.30;46.80
15609;DHT22;64278;45.642;13.756;2023-02-12T06:00:18;19.30;46.90
15609;DHT22;64278;45.642;13.756;2023-02-12T06:02:44;19.30;46.90
15609;DHT22;64278;45.642;13.756;2023-02-12T06:05:10;19.30;46.90
15609;DHT22;64278;45.642;13.756;2023-02-12T06:07:36;19.30;46.90
15609;DHT22;64278;45.642;13.756;2023-02-12T06:10:01;19.30;47.50
15609;DHT22;64278;45.642;13.756;2023-02-12T06:12:27;19.30;46.80
15609;DHT22;64278;45.642;13.756;2023-02-12T06:14:52;19.30;46.80
15609;DHT22;64278;45.642;13.756;2023-02-12T06:17:18;19.30;46.80
15609;DHT22;64278;45.642;13.756;2023-02-12T06:19:44;19.30;46.80
15609;DHT22;64278;45.642;13.756;2023-02-12T06:22:09;19.30;46.80
15609;DHT22;64278;45.642;13.756;2023-02-12T06:24:35;19.30;46.90
15609;DHT22;64278;45.642;13.756;2023-02-12T06:27:01;19.30;46.90
15609;DHT22;64278;45.642;13.756;2023-02-12T06:29:27;19.30;46.90
15609;DHT22;64278;45.642;13.756;2023-02-12T06:31:53;19.30;46.90
15609;DHT22;64278;45.642;13.756;2023-02-12T06:34:18;19.30;46.90
15609;DHT22;64278;45.642;13.756;2023-02-12T06:36:45;19.30;46.90
15609;DHT22;64278;45.642;13.756;2023-02-12T06:39:13;19.30;47.00
15609;DHT22;64278;45.642;13.756;2023-02-12T06:41:39;19.30;46.90
15609;DHT22;64278;45.642;13.756;2023-02-12T06:44:05;19.30;47.00
15609;DHT22;64278;45.642;13.756;2023-02-12T06:46:31;19.30;47.60
15609;DHT22;64278;45.642;13.756;2023-02-12T06:48:59;19.30;47.10
15609;DHT22;64278;45.642;13.756;2023-02-12T06:51:26;19.30;47.10
15609;DHT22;64278;45.642;13.756;2023-02-12T06:53:53;19.30;47.00
15609;DHT22;64278;45.642;13.756;2023-02-12T06:56:20;19.30;47.00
15609;DHT22;64278;45.642;13.756;2023-02-12T06:58:54;19.30;47.10
15609;DHT22;64278;45.642;13.756;2023-02-12T07:01:23;19.30;47.00
15609;DHT22;64278;45.642;13.756;2023-02-12T07:03:54;19.20;47.00
15609;DHT22;64278;45.642;13.756;2023-02-12T07:06:20;19.20;47.00
15609;DHT22;64278;45.642;13.756;2023-02-12T07:08:46;19.30;47.00
15609;DHT22;64278;45.642;13.756;2023-02-12T07:11:12;19.20;47.00
15609;DHT22;64278;45.642;13.756;2023-02-12T07:13:39;19.20;47.00
15609;DHT22;64278;45.642;13.756;2023-02-12T07:16:10;19.20;47.00
15609;DHT22;64278;45.642;13.756;2023-02-12T07:18:37;19.20;47.00
15609;DHT22;64278;45.642;13.756;2023-02-12T07:21:04;19.20;47.00
15609;DHT22;64278;45.642;13.756;2023-02-12T07:23:31;19.20;46.90
15609;DHT22;64278;45.642;13.756;2023-02-12T07:26:09;19.20;47.00
15609;DHT22;64278;45.642;13.756;2023-02-12T07:28:35;19.20;46.90
15609;DHT22;64278;45.642;13.756;2023-02-12T07:31:15;19.20;46.90
15609;DHT22;64278;45.642;13.756;2023-02-12T07:33:41;19.20;46.90
15609;DHT22;64278;45.642;13.756;2023-02-12T07:36:09;19.20;46.90
15609;DHT22;64278;45.642;13.756;2023-02-12T07:38:35;19.20;46.90
15609;DHT22;64278;45.642;13.756;2023-02-12T07:41:18;19.20;46.90
15609;DHT22;64278;45.642;13.756;2023-02-12T07:43:46;19.20;47.00
15609;DHT22;64278;45.642;13.756;2023-02-12T07:46:17;19.20;47.00
15609;DHT22;64278;45.642;13.756;2023-02-12T07:48:44;19.20;47.00
15609;DHT22;64278;45.642;13.756;2023-02-12T07:51:12;19.20;47.10
15609;DHT22;64278;45.642;13.756;2023-02-12T07:53:38;19.20;47.10
15609;DHT22;64278;45.642;13.756;2023-02-12T07:56:19;19.20;47.10
15609;DHT22;64278;45.642;13.756;2023-02-12T07:58:46;19.20;47.00
15609;DHT22;64278;45.642;13.756;2023-02-12T08:01:13;19.20;47.00
15609;DHT22;64278;45.642;13.756;2023-02-12T08:03:39;19.20;47.00
15609;DHT22;64278;45.642;13.756;2023-02-12T08:06:13;19.20;47.00
15609;DHT22;64278;45.642;13.756;2023-02-12T08:08:39;19.20;47.10
15609;DHT22;64278;45.642;13.756;2023-02-12T08:11:09;19.20;47.10
15609;DHT22;64278;45.642;13.756;2023-02-12T08:13:36;19.20;47.10
15609;DHT22;64278;45.642;13.756;2023-02-12T08:16:09;19.20;47.10
15609;DHT22;64278;45.642;13.756;2023-02-12T08:18:35;19.20;47.10
15609;DHT22;64278;45.642;13.756;2023-02-12T08:21:08;19.10;47.10
15609;DHT22;64278;45.642;13.756;2023-02-12T08:23:34;19.10;47.10
15609;DHT22;64278;45.642;13.756;2023-02-12T08:26:24;19.10;47.10
15609;DHT22;64278;45.642;13.756;2023-02-12T08:28:58;19.10;47.00
15609;DHT22;64278;45.642;13.756;2023-02-12T08:31:28;19.10;47.00
15609;DHT22;64278;45.642;13.756;2023-02-12T08:33:55;19.10;47.00
15609;DHT22;64278;45.642;13.756;2023-02-12T08:36:46;19.10;47.00
15609;DHT22;64278;45.642;13.756;2023-02-12T08:39:11;19.10;47.50
15609;DHT22;64278;45.642;13.756;2023-02-12T08:41:37;19.10;46.60
15609;DHT22;64278;45.642;13.756;2023-02-12T08:44:04;19.20;46.50
15609;DHT22;64278;45.642;13.756;2023-02-12T08:46:32;19.20;46.20
15609;DHT22;64278;45.642;13.756;2023-02-12T08:49:11;19.30;46.20
15609;DHT22;64278;45.642;13.756;2023-02-12T08:51:40;19.30;46.10
15609;DHT22;64278;45.642;13.756;2023-02-12T08:54:13;19.40;46.00
15609;DHT22;64278;45.642;13.756;2023-02-12T08:56:39;19.50;46.00
15609;DHT22;64278;45.642;13.756;2023-02-12T08:59:05;19.50;45.90
15609;DHT22;64278;45.642;13.756;2023-02-12T09:01:34;19.50;45.70
15609;DHT22;64278;45.642;13.756;2023-02-12T09:04:03;19.60;45.70
15609;DHT22;64278;45.642;13.756;2023-02-12T09:06:32;19.60;45.70
15609;DHT22;64278;45.642;13.756;2023-02-12T09:08:58;19.70;45.60
15609;DHT22;64278;45.642;13.756;2023-02-12T09:11:25;19.70;45.50
15609;DHT22;64278;45.642;13.756;2023-02-12T09:13:59;19.70;45.50
15609;DHT22;64278;45.642;13.756;2023-02-12T09:16:26;19.70;45.50
15609;DHT22;64278;45.642;13.756;2023-02-12T09:18:53;19.80;45.50
15609;DHT22;64278;45.642;13.756;2023-02-12T09:21:19;19.80;45.50
15609;DHT22;64278;45.642;13.756;2023-02-12T09:23:45;19.80;45.40
15609;DHT22;64278;45.642;13.756;2023-02-12T09:26:14;19.80;45.40
15609;DHT22;64278;45.642;13.756;2023-02-12T09:28:40;19.80;45.40
15609;DHT22;64278;45.642;13.756;2023-02-12T09:31:12;19.80;45.40
15609;DHT22;64278;45.642;13.756;2023-02-12T09:33:38;19.90;45.40
15609;DHT22;64278;45.642;13.756;2023-02-12T09:36:07;19.90;45.40
15609;DHT22;64278;45.642;13.756;2023-02-12T09:38:34;19.90;45.40
15609;DHT22;64278;45.642;13.756;2023-02-12T09:49:10;20.00;45.50
15609;DHT22;64278;45.642;13.756;2023-02-12T09:51:43;20.00;45.60
15609;DHT22;64278;45.642;13.756;2023-02-12T09:54:13;20.10;45.80
15609;DHT22;64278;45.642;13.756;2023-02-12T09:56:43;20.10;45.80
15609;DHT22;64278;45.642;13.756;2023-02-12T09:59:13;20.10;45.80
15609;DHT22;64278;45.642;13.756;2023-02-12T10:01:41;20.10;45.70
15609;DHT22;64278;45.642;13.756;2023-02-12T10:04:06;20.10;45.60
15609;DHT22;64278;45.642;13.756;2023-02-12T10:06:38;20.20;45.60
15609;DHT22;64278;45.642;13.756;2023-02-12T10:12:02;20.20;45.60
15609;DHT22;64278;45.642;13.756;2023-02-12T10:25:42;20.30;46.00
15609;DHT22;64278;45.642;13.756;2023-02-12T10:28:16;20.20;45.90
15609;DHT22;64278;45.642;13.756;2023-02-12T10:30:53;20.30;45.90
15609;DHT22;64278;45.642;13.756;2023-02-12T10:33:28;20.20;45.80
15609;DHT22;64278;45.642;13.756;2023-02-12T10:42:01;20.20;45.80
15609;DHT22;64278;45.642;13.756;2023-02-12T10:44:29;20.30;45.90
15609;DHT22;64278;45.642;13.756;2023-02-12T10:46:55;20.30;45.90
15609;DHT22;64278;45.642;13.756;2023-02-12T10:49:21;20.30;46.60
15609;DHT22;64278;45.642;13.756;2023-02-12T10:52:04;20.30;46.00
15609;DHT22;64278;45.642;13.756;2023-02-12T10:56:59;20.30;46.60
15609;DHT22;64278;45.642;13.756;2023-02-12T10:59:30;20.30;47.40
15609;DHT22;64278;45.642;13.756;2023-02-12T11:01:56;20.30;47.90
15609;DHT22;64278;45.642;13.756;2023-02-12T11:04:28;20.30;48.10
15609;DHT22;64278;45.642;13.756;2023-02-12T11:07:06;20.30;48.20
15609;DHT22;64278;45.642;13.756;2023-02-12T11:09:39;20.30;48.40
15609;DHT22;64278;45.642;13.756;2023-02-12T11:12:37;20.30;48.60
15609;DHT22;64278;45.642;13.756;2023-02-12T11:15:25;20.30;48.80
15609;DHT22;64278;45.642;13.756;2023-02-12T11:18:00;20.30;48.80
15609;DHT22;64278;45.642;13.756;2023-02-12T11:22:58;20.20;48.80
15609;DHT22;64278;45.642;13.756;2023-02-12T11:25:30;20.20;48.90
15609;DHT22;64278;45.642;13.756;2023-02-12T11:30:31;20.20;48.90
15609;DHT22;64278;45.642;13.756;2023-02-12T11:33:20;20.20;49.10
15609;DHT22;64278;45.642;13.756;2023-02-12T11:35:51;19.60;40.60
15609;DHT22;64278;45.642;13.756;2023-02-12T11:38:23;18.10;42.60
15609;DHT22;64278;45.642;13.756;2023-02-12T11:40:52;17.70;44.80
15609;DHT22;64278;45.642;13.756;2023-02-12T11:43:18;17.70;45.50
15609;DHT22;64278;45.642;13.756;2023-02-12T11:45:47;17.80;45.50
15609;DHT22;64278;45.642;13.756;2023-02-12T11:48:37;17.80;45.00
15609;DHT22;64278;45.642;13.756;2023-02-12T11:51:07;17.80;44.90
15609;DHT22;64278;45.642;13.756;2023-02-12T11:53:40;17.80;45.10
15609;DHT22;64278;45.642;13.756;2023-02-12T11:56:09;17.80;45.10
15609;DHT22;64278;45.642;13.756;2023-02-12T11:58:36;17.80;45.10
15609;DHT22;64278;45.642;13.756;2023-02-12T12:01:29;17.70;45.20
15609;DHT22;64278;45.642;13.756;2023-02-12T12:04:07;17.70;45.50
15609;DHT22;64278;45.642;13.756;2023-02-12T12:09:25;17.20;46.40
15609;DHT22;64278;45.642;13.756;2023-02-12T12:17:46;17.80;47.10
15609;DHT22;64278;45.642;13.756;2023-02-12T12:20:38;18.10;46.80
15609;DHT22;64278;45.642;13.756;2023-02-12T12:23:14;18.40;47.00
15609;DHT22;64278;45.642;13.756;2023-02-12T12:25:53;18.50;47.30
15609;DHT22;64278;45.642;13.756;2023-02-12T12:28:40;18.70;47.50
15609;DHT22;64278;45.642;13.756;2023-02-12T12:34:01;18.90;47.90
15609;DHT22;64278;45.642;13.756;2023-02-12T12:50:50;19.30;51.60
15609;DHT22;64278;45.642;13.756;2023-02-12T12:53:41;19.40;52.90
15609;DHT22;64278;45.642;13.756;2023-02-12T12:59:13;19.50;55.10
15609;DHT22;64278;45.642;13.756;2023-02-12T13:17:39;19.60;56.80
15609;DHT22;64278;45.642;13.756;2023-02-12T13:20:32;19.60;56.50
15609;DHT22;64278;45.642;13.756;2023-02-12T13:26:21;19.60;55.70
15609;DHT22;64278;45.642;13.756;2023-02-12T13:29:05;19.60;55.50
15609;DHT22;64278;45.642;13.756;2023-02-12T13:31:35;19.60;55.10
15609;DHT22;64278;45.642;13.756;2023-02-12T13:34:06;19.60;54.90
15609;DHT22;64278;45.642;13.756;2023-02-12T13:36:35;19.60;54.60
15609;DHT22;64278;45.642;13.756;2023-02-12T13:39:14;19.60;54.40
15609;DHT22;64278;45.642;13.756;2023-02-12T13:41:46;19.60;54.20
15609;DHT22;64278;45.642;13.756;2023-02-12T13:44:18;19.60;53.90
15609;DHT22;64278;45.642;13.756;2023-02-12T13:47:57;19.60;53.70
15609;DHT22;64278;45.642;13.756;2023-02-12T13:52:48;19.60;53.10
15609;DHT22;64278;45.642;13.756;2023-02-12T13:55:30;19.60;52.90
15609;DHT22;64278;45.642;13.756;2023-02-12T14:04:26;19.60;52.10
15609;DHT22;64278;45.642;13.756;2023-02-12T14:07:14;19.60;51.90
15609;DHT22;64278;45.642;13.756;2023-02-12T14:09:43;19.60;51.70
15609;DHT22;64278;45.642;13.756;2023-02-12T14:12:37;19.60;51.60
15609;DHT22;64278;45.642;13.756;2023-02-12T14:15:27;19.60;51.40
15609;DHT22;64278;45.642;13.756;2023-02-12T14:17:54;19.60;51.30
15609;DHT22;64278;45.642;13.756;2023-02-12T14:30:37;19.60;51.10
15609;DHT22;64278;45.642;13.756;2023-02-12T14:33:24;19.60;51.00
15609;DHT22;64278;45.642;13.756;2023-02-12T14:36:11;19.60;50.90
15609;DHT22;64278;45.642;13.756;2023-02-12T14:46:59;19.60;50.60
15609;DHT22;64278;45.642;13.756;2023-02-12T14:57:25;19.60;50.40
15609;DHT22;64278;45.642;13.756;2023-02-12T15:02:54;19.60;50.20
15609;DHT22;64278;45.642;13.756;2023-02-12T15:05:31;19.60;50.10
15609;DHT22;64278;45.642;13.756;2023-02-12T15:08:06;19.60;50.10
15609;DHT22;64278;45.642;13.756;2023-02-12T15:10:56;19.60;50.10
15609;DHT22;64278;45.642;13.756;2023-02-12T15:13:25;19.60;50.10
15609;DHT22;64278;45.642;13.756;2023-02-12T15:16:08;19.50;49.90
15609;DHT22;64278;45.642;13.756;2023-02-12T15:21:15;19.50;49.90
15609;DHT22;64278;45.642;13.756;2023-02-12T15:23:45;19.60;50.50
15609;DHT22;64278;45.642;13.756;2023-02-12T15:26:19;19.50;49.80
15609;DHT22;64278;45.642;13.756;2023-02-12T15:28:48;19.50;49.70
15609;DHT22;64278;45.642;13.756;2023-02-12T15:31:20;19.50;49.70
15609;DHT22;64278;45.642;13.756;2023-02-12T15:33:49;19.50;49.60
15609;DHT22;64278;45.642;13.756;2023-02-12T15:36:24;19.50;49.60
15609;DHT22;64278;45.642;13.756;2023-02-12T15:38:59;19.50;49.60
15609;DHT22;64278;45.642;13.756;2023-02-12T15:43:58;19.50;49.50
15609;DHT22;64278;45.642;13.756;2023-02-12T15:46:24;19.50;49.50
15609;DHT22;64278;45.642;13.756;2023-02-12T15:48:50;19.50;49.40
15609;DHT22;64278;45.642;13.756;2023-02-12T15:51:27;19.50;49.40
15609;DHT22;64278;45.642;13.756;2023-02-12T15:53:55;19.50;49.40
15609;DHT22;64278;45.642;13.756;2023-02-12T15:56:23;19.50;49.30
15609;DHT22;64278;45.642;13.756;2023-02-12T15:58:55;19.50;49.20
15609;DHT22;64278;45.642;13.756;2023-02-12T16:01:28;19.50;49.20
15609;DHT22;64278;45.642;13.756;2023-02-12T16:03:56;19.50;49.20
15609;DHT22;64278;45.642;13.756;2023-02-12T16:06:24;19.50;49.20
15609;DHT22;64278;45.642;13.756;2023-02-12T16:09:18;19.50;49.10
15609;DHT22;64278;45.642;13.756;2023-02-12T16:11:45;19.60;49.10
15609;DHT22;64278;45.642;13.756;2023-02-12T16:20:03;19.50;49.00
15609;DHT22;64278;45.642;13.756;2023-02-12T16:22:39;19.50;49.10
15609;DHT22;64278;45.642;13.756;2023-02-12T16:25:40;19.50;49.10
15609;DHT22;64278;45.642;13.756;2023-02-12T16:28:17;19.50;49.10
15609;DHT22;64278;45.642;13.756;2023-02-12T16:30:45;19.50;49.10
15609;DHT22;64278;45.642;13.756;2023-02-12T16:38:48;19.50;49.10
15609;DHT22;64278;45.642;13.756;2023-02-12T16:43:46;19.50;49.00
15609;DHT22;64278;45.642;13.756;2023-02-12T16:46:13;19.50;49.10
15609;DHT22;64278;45.642;13.756;2023-02-12T16:48:44;19.50;49.00
15609;DHT22;64278;45.642;13.756;2023-02-12T16:51:33;19.40;49.00
15609;DHT22;64278;45.642;13.756;2023-02-12T16:54:01;19.40;49.00
15609;DHT22;64278;45.642;13.756;2023-02-12T16:56:32;19.40;49.00
15609;DHT22;64278;45.642;13.756;2023-02-12T16:58:59;19.40;48.90
15609;DHT22;64278;45.642;13.756;2023-02-12T17:01:29;19.40;48.90
15609;DHT22;64278;45.642;13.756;2023-02-12T17:03:57;19.40;48.90
15609;DHT22;64278;45.642;13.756;2023-02-12T17:06:25;19.40;48.90
15609;DHT22;64278;45.642;13.756;2023-02-12T17:08:51;19.40;48.90
15609;DHT22;64278;45.642;13.756;2023-02-12T17:11:18;19.40;48.90
15609;DHT22;64278;45.642;13.756;2023-02-12T17:13:48;19.40;48.90
15609;DHT22;64278;45.642;13.756;2023-02-12T17:16:14;19.40;48.90
15609;DHT22;64278;45.642;13.756;2023-02-12T17:18:40;19.40;48.80
15609;DHT22;64278;45.642;13.756;2023-02-12T17:21:42;19.40;48.80
15609;DHT22;64278;45.642;13.756;2023-02-12T17:24:21;19.40;48.90
15609;DHT22;64278;45.642;13.756;2023-02-12T17:26:48;19.40;48.80
15609;DHT22;64278;45.642;13.756;2023-02-12T17:29:18;19.40;48.90
15609;DHT22;64278;45.642;13.756;2023-02-12T17:31:45;19.40;48.90
15609;DHT22;64278;45.642;13.756;2023-02-12T17:34:12;19.30;48.90
15609;DHT22;64278;45.642;13.756;2023-02-12T17:36:39;19.40;48.90
15609;DHT22;64278;45.642;13.756;2023-02-12T17:39:06;19.40;48.90
15609;DHT22;64278;45.642;13.756;2023-02-12T17:41:33;19.30;48.80
15609;DHT22;64278;45.642;13.756;2023-02-12T17:43:59;19.30;48.80
15609;DHT22;64278;45.642;13.756;2023-02-12T17:46:26;19.30;48.90
15609;DHT22;64278;45.642;13.756;2023-02-12T17:48:52;19.40;48.90
15609;DHT22;64278;45.642;13.756;2023-02-12T17:51:18;19.30;48.80
15609;DHT22;64278;45.642;13.756;2023-02-12T17:53:44;19.40;48.90
15609;DHT22;64278;45.642;13.756;2023-02-12T17:56:11;19.40;48.90
15609;DHT22;64278;45.642;13.756;2023-02-12T17:58:38;19.40;48.80
15609;DHT22;64278;45.642;13.756;2023-02-12T18:01:05;19.30;48.90
15609;DHT22;64278;45.642;13.756;2023-02-12T18:03:31;19.30;48.90
15609;DHT22;64278;45.642;13.756;2023-02-12T18:05:57;19.40;48.90
15609;DHT22;64278;45.642;13.756;2023-02-12T18:08:23;19.30;48.90
15609;DHT22;64278;45.642;13.756;2023-02-12T18:10:48;19.30;48.90
15609;DHT22;64278;45.642;13.756;2023-02-12T18:13:14;19.30;48.90
15609;DHT22;64278;45.642;13.756;2023-02-12T18:15:40;19.30;48.90
15609;DHT22;64278;45.642;13.756;2023-02-12T18:18:06;19.30;48.90
15609;DHT22;64278;45.642;13.756;2023-02-12T18:20:31;19.30;48.90
15609;DHT22;64278;45.642;13.756;2023-02-12T18:22:57;19.30;48.90
15609;DHT22;64278;45.642;13.756;2023-02-12T18:25:23;19.40;49.00
15609;DHT22;64278;45.642;13.756;2023-02-12T18:27:49;19.40;49.00
15609;DHT22;64278;45.642;13.756;2023-02-12T18:30:15;19.50;49.10
15609;DHT22;64278;45.642;13.756;2023-02-12T18:32:40;19.50;48.90
15609;DHT22;64278;45.642;13.756;2023-02-12T18:35:07;19.50;48.80
15609;DHT22;64278;45.642;13.756;2023-02-12T18:37:34;19.50;48.70
15609;DHT22;64278;45.642;13.756;2023-02-12T18:40:00;19.50;48.50
15609;DHT22;64278;45.642;13.756;2023-02-12T18:42:25;19.60;48.50
15609;DHT22;64278;45.642;13.756;2023-02-12T18:44:53;19.60;48.50